Ford, Kentucky
Current Conditions -  °F | °C
As of 12:55 AM on Tuesday 27 Jan 2015 (Local Time) from KI39 Reporting Station
Overcast Overcast  
Wind Chill: 28°   Ceiling: 1800
Heat Index: 28°   Visibility: 10mi
Dew Point: 25°   Wind: 0mph
Humidity: 86%   Direction: NA
Pressure: 29.91"   Gusts: NA
Location:  37.88°N, 84.26°W
Report Text: KI39 270555Z AUTO 00000KT 10SM OVC018 M02/M04 A2991 RMK AO2
Loading
Personal Weather Stations






























Interactive Weather Map New forecast layout! Learn more

10-Day Weather Forecast

Advertisements
Track Severe Weather on mobile